Terminal Aerodrome Forecast
Issued by NWS Charleston, WV

Current Version | Previous Version | Text Only | Print | Product List | Glossary Off
Versions: 1 2 3 4 5 6 7 8 9 10 11 12 13 14 15 16 17 18 19 20 21

000
FTUS41 KRLX 180500 RRA
TAFBKW
TAF
KBKW 180541Z 1806/1906 29014G21KT 4SM -SN OVC025
     FM181300 28012G18KT P6SM BKN025
     FM181700 28011G20KT P6SM BKN035
     FM182300 27009G14KT P6SM SKC
     FM190300 28007KT P6SM SCT030=

USA.gov is the U.S. government's official web portal to all federal, state and local government web resources and services.